Time;durP1;ratioP1;P1;durP2;ratioP2;P2;SDS_P1;SDS_P2;PMS_P1;PMS_P2;Temp;Humidity;BMP_temperature;BMP_pressure;BME280_temperature;BME280_humidity;BME280_pressure;Samples;Min_cycle;Max_cycle;Signal;HPM_P1;HPM_P2
2022/07/05 00:00:09;;;;;;;3.10;0.90;;;;;;;22.88;34.67;98159.72;8385310;28;20227;-79
2022/07/05 00:04:12;;;;;;;1.90;0.80;;;;;;;22.91;34.81;98162.09;8418179;28;20242;-80
2022/07/05 00:08:14;;;;;;;1.00;0.80;;;;;;;22.88;34.53;98165.84;8418295;28;20536;-80
2022/07/05 00:12:18;;;;;;;1.70;0.80;;;;;;;22.83;34.74;98166.28;8418414;28;20415;-80
2022/07/05 00:16:24;;;;;;;1.60;0.87;;;;;;;22.83;35.00;98166.28;8416446;28;20231;-79
2022/07/05 00:20:27;;;;;;;4.27;0.90;;;;;;;22.76;34.91;98169.63;8418015;28;20231;-80
2022/07/05 00:24:30;;;;;;;4.10;0.90;;;;;;;22.64;35.20;98174.22;8417848;28;20241;-80
2022/07/05 00:28:32;;;;;;;4.33;1.00;;;;;;;22.58;35.16;98178.25;8417781;28;20429;-79
2022/07/05 00:32:37;;;;;;;1.50;0.80;;;;;;;22.59;35.19;98165.88;8417657;28;20242;-79
2022/07/05 00:36:40;;;;;;;2.03;0.80;;;;;;;22.53;35.34;98174.34;8417216;28;20235;-80
2022/07/05 00:40:43;;;;;;;2.87;1.00;;;;;;;22.49;34.97;98167.69;8416589;28;20226;-79
2022/07/05 00:44:46;;;;;;;3.10;1.00;;;;;;;22.46;35.20;98171.41;8416909;28;20234;-79
2022/07/05 00:48:50;;;;;;;2.33;1.00;;;;;;;22.46;35.22;98174.06;8416916;28;20333;-80
2022/07/05 00:52:55;;;;;;;1.20;0.87;;;;;;;22.35;35.51;98171.53;8416733;28;20230;-80
2022/07/05 00:56:59;;;;;;;2.10;1.00;;;;;;;22.36;35.82;98179.31;8416508;28;20555;-80
2022/07/05 01:01:04;;;;;;;1.77;1.00;;;;;;;22.17;36.06;98172.19;8416224;28;20226;-80
2022/07/05 01:05:09;;;;;;;4.30;1.10;;;;;;;22.15;36.26;98171.50;8415864;28;20227;-79
2022/07/05 01:09:13;;;;;;;3.30;1.00;;;;;;;22.05;36.85;98168.03;8415499;28;20235;-80
2022/07/05 01:13:16;;;;;;;2.23;0.90;;;;;;;22.00;37.08;98170.22;8415954;28;20223;-80
2022/07/05 01:17:19;;;;;;;2.33;1.00;;;;;;;21.92;37.38;98167.44;8415681;28;20234;-80
2022/07/05 01:21:24;;;;;;;3.57;1.27;;;;;;;21.87;37.63;98167.81;8415217;28;20233;-78
2022/07/05 01:25:30;;;;;;;2.50;1.30;;;;;;;21.84;37.61;98168.94;8415232;28;20525;-79
2022/07/05 01:29:32;;;;;;;2.67;1.10;;;;;;;21.74;37.79;98164.59;8414705;28;20234;-79
2022/07/05 01:33:35;;;;;;;3.93;0.97;;;;;;;21.74;37.75;98162.81;8415204;28;20234;-79
2022/07/05 01:37:38;;;;;;;2.60;1.23;;;;;;;21.69;37.82;98164.19;8415157;28;20536;-79
2022/07/05 01:41:42;;;;;;;2.80;1.20;;;;;;;21.69;37.96;98164.19;8414924;28;20234;-79
2022/07/05 01:45:46;;;;;;;3.60;1.20;;;;;;;21.62;37.85;98163.84;8414726;28;20231;-79
2022/07/05 01:49:51;;;;;;;2.00;1.10;;;;;;;21.60;37.85;98163.16;8414583;28;20230;-79
2022/07/05 01:53:54;;;;;;;5.23;1.40;;;;;;;21.51;38.05;98163.94;8414564;28;20230;-79
2022/07/05 01:58:00;;;;;;;3.27;1.33;;;;;;;21.55;37.82;98165.34;8414614;28;20222;-79
2022/07/05 02:02:04;;;;;;;2.43;1.10;;;;;;;21.51;37.99;98159.50;8414028;28;20591;-79
2022/07/05 02:06:08;;;;;;;3.90;1.00;;;;;;;21.44;38.27;98161.03;8414133;28;20237;-79
2022/07/05 02:10:11;;;;;;;2.10;1.10;;;;;;;21.41;38.11;98164.69;8414153;28;20230;-79
2022/07/05 02:14:15;;;;;;;2.47;1.10;;;;;;;21.39;39.08;98153.47;8414165;28;20226;-79
2022/07/05 02:18:18;;;;;;;2.87;1.20;;;;;;;21.37;39.45;98150.13;8413869;28;20230;-79
2022/07/05 02:22:21;;;;;;;2.10;1.27;;;;;;;21.31;39.16;98160.38;8413832;28;20233;-79
2022/07/05 02:26:24;;;;;;;2.77;1.20;;;;;;;21.28;39.36;98161.44;8413354;28;20238;-78
2022/07/05 02:30:28;;;;;;;4.60;1.07;;;;;;;21.23;39.13;98155.75;8413779;28;20234;-78
2022/07/05 02:34:31;;;;;;;4.13;1.30;;;;;;;21.18;39.21;98157.94;8413574;28;20439;-79
2022/07/05 02:38:33;;;;;;;4.00;1.37;;;;;;;21.31;38.92;98160.38;8413293;28;20564;-79
2022/07/05 02:42:36;;;;;;;2.17;1.00;;;;;;;21.21;38.95;98170.84;8413156;28;20237;-79
2022/07/05 02:46:41;;;;;;;2.60;1.27;;;;;;;21.15;38.83;98168.72;8413389;28;20245;-79
2022/07/05 02:50:45;;;;;;;3.13;1.10;;;;;;;21.02;39.30;98159.25;8413324;28;20227;-79
2022/07/05 02:54:48;;;;;;;3.17;1.40;;;;;;;21.02;39.43;98164.50;8413540;28;20235;-79
2022/07/05 02:58:50;;;;;;;4.60;1.27;;;;;;;20.96;39.78;98167.66;8413303;28;20237;-79
2022/07/05 03:02:55;;;;;;;2.80;1.20;;;;;;;20.97;39.81;98165.84;8413303;28;20235;-80
2022/07/05 03:06:57;;;;;;;3.47;1.33;;;;;;;20.91;39.42;98163.75;8413036;28;20235;-80
2022/07/05 03:11:00;;;;;;;2.97;1.50;;;;;;;20.87;39.58;98179.78;8412993;28;20234;-80
2022/07/05 03:15:03;;;;;;;1.33;1.13;;;;;;;20.82;40.11;98189.03;8413066;28;20226;-79
2022/07/05 03:19:13;;;;;;;2.37;1.30;;;;;;;20.82;40.61;98187.22;8413026;28;20225;-80
2022/07/05 03:23:16;;;;;;;7.83;1.30;;;;;;;20.71;40.39;98189.91;8413004;28;20247;-80
2022/07/05 03:27:19;;;;;;;2.97;1.37;;;;;;;20.59;41.02;98191.72;8412789;28;20236;-80
2022/07/05 03:31:22;;;;;;;1.90;1.07;;;;;;;20.56;41.57;98196.38;8412574;28;20226;-79
2022/07/05 03:35:27;;;;;;;1.93;1.33;;;;;;;20.56;41.60;98205.13;8412827;28;20560;-79
2022/07/05 03:39:30;;;;;;;3.60;1.30;;;;;;;20.50;41.43;98206.47;8412695;28;20236;-79
2022/07/05 03:43:33;;;;;;;4.33;1.33;;;;;;;20.47;42.10;98213.78;8412538;28;20235;-79
2022/07/05 03:47:36;;;;;;;2.67;1.40;;;;;;;20.47;41.95;98219.88;8412323;28;20245;-79
2022/07/05 03:51:40;;;;;;;4.83;1.50;;;;;;;20.47;42.41;98219.03;8414838;28;20233;-79
2022/07/05 03:55:43;;;;;;;3.77;1.50;;;;;;;20.38;42.61;98225.03;8418297;28;20404;-79
2022/07/05 03:59:46;;;;;;;4.47;1.50;;;;;;;20.47;42.64;98227.75;8418074;28;20520;-79
2022/07/05 04:03:49;;;;;;;3.93;1.50;;;;;;;20.45;42.98;98231.47;8417907;28;20221;-79
2022/07/05 04:07:55;;;;;;;3.17;1.63;;;;;;;20.45;43.11;98232.31;8417602;28;20518;-79
2022/07/05 04:11:58;;;;;;;4.43;1.43;;;;;;;20.41;43.37;98232.66;8417680;28;20235;-79
2022/07/05 04:16:00;;;;;;;3.43;1.40;;;;;;;20.54;43.20;98235.16;8417892;28;20231;-79
2022/07/05 04:20:04;;;;;;;2.70;1.30;;;;;;;20.55;43.12;98242.09;8417322;28;20234;-79
2022/07/05 04:24:10;;;;;;;1.80;1.37;;;;;;;20.44;43.74;98242.94;8417718;28;20533;-79
2022/07/05 04:28:13;;;;;;;2.20;1.40;;;;;;;20.58;43.76;98241.81;8417136;28;20233;-79
2022/07/05 04:32:15;;;;;;;5.40;1.80;;;;;;;20.50;44.08;98250.34;8417300;28;20253;-79
2022/07/05 04:36:18;;;;;;;5.03;1.63;;;;;;;20.66;43.77;98239.47;8417050;28;20237;-79
2022/07/05 04:40:23;;;;;;;4.17;1.67;;;;;;;20.65;44.15;98248.28;8417114;28;20232;-79
2022/07/05 04:44:26;;;;;;;8.20;1.80;;;;;;;20.70;44.20;98249.59;8416555;28;20411;-78
2022/07/05 04:48:28;;;;;;;5.97;1.57;;;;;;;20.72;44.60;98251.28;8416542;28;20231;-78
2022/07/05 04:52:31;;;;;;;3.07;1.70;;;;;;;20.77;43.38;98256.97;8416459;28;20238;-77
2022/07/05 04:56:35;;;;;;;2.17;1.40;;;;;;;20.87;43.59;98257.91;8416301;28;20242;-78
2022/07/05 05:00:38;;;;;;;4.83;1.43;;;;;;;20.89;43.39;98259.44;8416228;28;20219;-78
2022/07/05 05:04:41;;;;;;;4.60;1.80;;;;;;;20.95;43.70;98259.91;8415716;28;20228;-90
2022/07/05 05:08:44;;;;;;;5.13;1.70;;;;;;;21.01;42.86;98262.03;8416129;28;20228;-84
2022/07/05 05:12:48;;;;;;;9.27;1.70;;;;;;;21.08;42.78;98257.94;8414212;28;20231;-82
2022/07/05 05:16:51;;;;;;;3.70;1.37;;;;;;;21.17;42.99;98262.44;8382861;28;20236;-79
2022/07/05 05:20:55;;;;;;;3.20;1.50;;;;;;;21.20;43.03;98261.34;8382889;28;20233;-81
2022/07/05 05:24:58;;;;;;;4.50;1.43;;;;;;;21.36;43.07;98268.78;8382045;28;20556;-78
2022/07/05 05:29:02;;;;;;;4.70;1.50;;;;;;;21.48;43.57;98262.53;8382356;28;20544;-79
2022/07/05 05:33:05;;;;;;;3.47;1.70;;;;;;;21.55;43.23;98268.97;8382176;28;20229;-81
2022/07/05 05:37:08;;;;;;;6.37;1.40;;;;;;;21.56;43.09;98269.78;8382052;28;20435;-80
2022/07/05 05:41:11;;;;;;;2.23;1.33;;;;;;;21.76;41.83;98271.56;8382162;28;20229;-78
2022/07/05 05:45:15;;;;;;;3.97;1.50;;;;;;;21.80;41.48;98269.47;8382179;28;20237;-78
2022/07/05 05:49:18;;;;;;;3.63;1.30;;;;;;;21.88;41.33;98271.50;8381649;28;20534;-78
2022/07/05 05:53:21;;;;;;;6.80;1.50;;;;;;;22.06;41.06;98264.59;8381686;28;20234;-79
2022/07/05 05:57:31;;;;;;;5.23;1.50;;;;;;;22.16;40.76;98268.13;8381275;28;20237;-78
2022/07/05 06:01:35;;;;;;;2.90;1.30;;;;;;;22.27;40.35;98267.19;8392347;28;20238;-77
2022/07/05 06:05:38;;;;;;;3.37;1.30;;;;;;;22.43;40.32;98266.69;8414413;28;20522;-77
2022/07/05 06:09:41;;;;;;;2.43;1.13;;;;;;;22.62;39.84;98263.25;8413954;28;20243;-77
2022/07/05 06:13:44;;;;;;;2.43;1.20;;;;;;;22.68;38.48;98269.78;8414295;28;20292;-77
2022/07/05 06:17:49;;;;;;;4.40;1.40;;;;;;;22.75;37.34;98269.09;8414184;28;20234;-77
2022/07/05 06:21:52;;;;;;;2.83;1.20;;;;;;;22.80;37.10;98277.44;8414155;28;20590;-78
2022/07/05 06:26:01;;;;;;;3.77;1.27;;;;;;;;;;8413927;28;20519;-78
2022/07/05 06:30:05;;;;;;;4.63;1.20;;;;;;;23.14;39.28;98277.06;8413777;28;20422;-77
2022/07/05 06:34:09;;;;;;;2.73;1.20;;;;;;;22.99;37.45;98275.78;8413637;28;20238;-77
2022/07/05 06:38:11;;;;;;;4.67;1.53;;;;;;;23.23;38.71;98270.09;8413736;28;20433;-77
2022/07/05 06:42:14;;;;;;;4.10;1.20;;;;;;;23.17;37.42;98275.94;8413760;28;20227;-78
2022/07/05 06:46:17;;;;;;;18.23;2.03;;;;;;;23.47;38.56;98274.09;8413716;28;20418;-79
2022/07/05 06:50:21;;;;;;;2.50;1.20;;;;;;;23.51;38.86;98280.75;8400665;28;20230;-80
2022/07/05 06:54:24;;;;;;;5.43;1.20;;;;;;;23.82;38.57;98278.78;8395660;28;20233;-79
2022/07/05 06:58:47;;;;;;;2.43;1.10;;;;;;;23.89;37.26;98284.31;8395832;28;20226;-79
2022/07/05 07:03:10;;;;;;;3.77;1.20;;;;;;;24.13;38.49;98289.09;8398562;28;20225;-78
2022/07/05 07:11:55;;;;;;;1.93;1.10;;;;;;;24.28;38.38;98303.50;8388042;28;20233;-79
2022/07/05 07:15:58;;;;;;;12.33;1.40;;;;;;;24.56;37.58;98292.91;8379811;28;20227;-79
2022/07/05 07:20:01;;;;;;;2.67;1.50;;;;;;;24.92;41.09;98307.03;8379591;28;20247;-79
2022/07/05 07:24:07;;;;;;;6.33;1.40;;;;;;;25.25;40.07;98303.88;8379520;28;20235;-80
2022/07/05 07:28:09;;;;;;;5.30;1.70;;;;;;;25.33;39.47;98306.59;8384596;28;20401;-79
2022/07/05 07:32:12;;;;;;;2.87;1.30;;;;;;;25.51;40.33;98304.75;8385829;28;20232;-79
2022/07/05 07:36:15;;;;;;;4.10;1.30;;;;;;;25.81;39.66;98309.75;8385887;28;20235;-79
2022/07/05 07:40:19;;;;;;;3.67;1.20;;;;;;;25.95;37.04;98295.94;8385740;28;20239;-79
2022/07/05 07:44:22;;;;;;;9.00;1.43;;;;;;;25.95;38.69;98298.59;8385191;28;20249;-80
2022/07/05 07:48:25;;;;;;;7.67;1.37;;;;;;;26.29;36.24;98287.13;8390827;28;20239;-79
2022/07/05 07:52:30;;;;;;;2.67;1.20;;;;;;;26.43;34.52;98291.81;8418673;28;20238;-78
2022/07/05 07:56:34;;;;;;;3.87;1.50;;;;;;;26.74;35.32;98295.75;8418132;28;20231;-81
2022/07/05 08:00:37;;;;;;;4.73;1.30;;;;;;;27.04;36.07;98299.63;8415611;28;20424;-77
2022/07/05 08:04:40;;;;;;;4.13;1.40;;;;;;;27.24;34.59;98300.13;8387050;28;20239;-76
2022/07/05 08:08:45;;;;;;;5.63;1.33;;;;;;;27.25;32.29;98296.50;8384990;28;20245;-79
2022/07/05 08:12:49;;;;;;;3.67;1.17;;;;;;;27.52;32.58;98297.97;8387500;28;20235;-79
2022/07/05 08:16:52;;;;;;;4.47;1.30;;;;;;;27.43;31.78;98299.81;8386059;28;20583;-79
2022/07/05 08:25:17;;;;;;;5.60;1.20;;;;;;;27.84;31.28;98297.09;8407778;28;20223;-79
2022/07/05 08:29:21;;;;;;;2.43;0.87;;;;;;;28.23;30.56;98293.66;8417639;28;20228;-79
2022/07/05 08:33:25;;;;;;;1.20;0.90;;;;;;;28.22;30.03;98291.19;8417075;28;20240;-78
2022/07/05 08:37:28;;;;;;;4.37;1.10;;;;;;;28.53;28.10;98290.41;8416133;28;20536;-77
2022/07/05 08:41:33;;;;;;;3.73;1.13;;;;;;;28.66;27.96;98286.16;8417252;28;20237;-78
2022/07/05 08:45:38;;;;;;;4.00;1.00;;;;;;;28.72;27.24;98289.13;8417109;28;20229;-77
2022/07/05 08:49:41;;;;;;;2.90;1.00;;;;;;;28.76;27.56;98301.91;8416908;28;20238;-78
2022/07/05 08:53:45;;;;;;;2.97;1.20;;;;;;;29.21;26.96;98288.81;8416926;28;20247;-78
2022/07/05 08:57:48;;;;;;;3.90;1.00;;;;;;;29.33;26.39;98289.19;8416762;28;20226;-79
2022/07/05 09:01:53;;;;;;;4.23;0.90;;;;;;;29.47;26.26;98291.06;8416404;28;20228;-78
2022/07/05 09:05:57;;;;;;;2.80;0.90;;;;;;;29.49;25.90;98294.38;8416428;28;20237;-79
2022/07/05 09:10:03;;;;;;;2.27;0.90;;;;;;;29.03;26.28;98292.59;8415896;28;20239;-79
2022/07/05 09:14:07;;;;;;;4.43;1.20;;;;;;;29.22;26.05;98295.78;8415949;28;20325;-77
2022/07/05 09:18:44;;;;;;;5.80;1.17;;;;;;;29.12;25.80;98296.00;8415675;28;20229;-77
2022/07/05 09:22:52;;;;;;;4.10;0.90;;;;;;;27.91;26.67;98299.91;8416086;28;20240;-77
2022/07/05 09:27:02;;;;;;;3.70;1.00;;;;;;;28.54;26.80;98294.72;8416107;28;20240;-76
2022/07/05 09:31:06;;;;;;;2.03;1.10;;;;;;;29.43;26.06;98301.28;8415154;28;20238;-77
2022/07/05 09:35:21;;;;;;;2.40;0.87;;;;;;;29.75;25.08;98295.84;8415379;28;20222;-76
2022/07/05 09:39:41;;;;;;;4.30;1.03;;;;;;;30.11;25.01;98295.09;8414543;28;20518;-78
2022/07/05 09:43:44;;;;;;;5.33;1.20;;;;;;;29.23;24.66;98305.47;8415080;28;20252;-78
2022/07/05 09:47:48;;;;;;;4.53;0.97;;;;;;;29.71;25.73;98313.19;8412441;28;20238;-78
2022/07/05 09:52:13;;;;;;;2.63;0.80;;;;;;;30.65;24.78;98294.75;8382603;28;20229;-78
2022/07/05 09:56:16;;;;;;;4.50;1.10;;;;;;;30.71;25.82;98302.03;8381486;28;20229;-78
2022/07/05 10:00:21;;;;;;;4.30;1.30;;;;;;;30.75;25.34;98297.97;8382084;28;20537;-77
2022/07/05 10:04:24;;;;;;;4.00;0.90;;;;;;;30.88;24.58;98299.13;8382194;28;20414;-77
2022/07/05 10:08:28;;;;;;;5.07;1.03;;;;;;;31.04;23.28;98290.88;8380786;28;20294;-78
2022/07/05 10:12:32;;;;;;;2.40;1.10;;;;;;;30.89;23.09;98288.22;8381195;28;20231;-78
2022/07/05 10:16:34;;;;;;;4.60;1.17;;;;;;;29.25;26.34;98303.44;8383742;28;20238;-78
2022/07/05 10:20:41;;;;;;;5.23;1.10;;;;;;;29.91;24.07;98297.50;8407917;28;20242;-77
2022/07/05 10:24:45;;;;;;;5.80;1.20;;;;;;;30.32;24.22;98289.84;8414244;28;20233;-78
2022/07/05 10:28:50;;;;;;;1.47;1.00;;;;;;;30.90;24.83;98287.25;8414155;28;20244;-79
2022/07/05 10:32:58;;;;;;;3.40;0.83;;;;;;;29.07;25.45;98293.03;8411082;28;20229;-78
2022/07/05 10:37:00;;;;;;;3.40;1.20;;;;;;;29.36;26.44;98305.69;8413906;28;20229;-78
2022/07/05 10:41:07;;;;;;;2.70;1.13;;;;;;;28.63;26.30;98301.66;8413661;28;20224;-77
2022/07/05 10:45:27;;;;;;;2.47;1.00;;;;;;;28.26;26.23;98298.63;8414024;28;20235;-78
2022/07/05 10:49:31;;;;;;;3.27;1.10;;;;;;;29.69;24.91;98300.03;8413306;28;20230;-77
2022/07/05 10:54:06;;;;;;;3.87;1.20;;;;;;;30.33;24.14;98299.53;8413713;28;20230;-76
2022/07/05 10:58:25;;;;;;;2.03;0.90;;;;;;;29.92;23.70;98299.97;8413608;28;20230;-77
2022/07/05 11:02:28;;;;;;;5.50;1.40;;;;;;;30.50;23.08;98300.16;8417145;28;20230;-76
2022/07/05 11:06:33;;;;;;;5.23;1.10;;;;;;;30.95;24.10;98289.34;8395195;28;20531;-76
2022/07/05 11:10:36;;;;;;;4.23;1.27;;;;;;;31.24;22.53;98293.72;8386516;28;20239;-76
2022/07/05 11:14:46;;;;;;;3.53;1.00;;;;;;;31.32;21.67;98290.06;8386736;28;20234;-75
2022/07/05 11:18:50;;;;;;;3.20;1.00;;;;;;;29.63;23.22;98296.25;8386388;28;20231;-76
2022/07/05 11:23:04;;;;;;;4.77;1.03;;;;;;;30.58;22.42;98289.34;8386442;28;20233;-76
2022/07/05 11:27:11;;;;;;;4.13;1.10;;;;;;;30.83;22.43;98297.03;8386479;28;20266;-76
2022/07/05 11:31:41;;;;;;;3.50;1.10;;;;;;;30.10;21.98;98288.09;8399437;28;20623;-77
2022/07/05 11:35:43;;;;;;;6.27;1.17;;;;;;;30.91;21.47;98280.06;8419008;28;20232;-76
2022/07/05 11:39:47;;;;;;;4.73;1.00;;;;;;;30.20;22.67;98286.81;8419031;28;20228;-77
2022/07/05 11:43:57;;;;;;;2.03;1.03;;;;;;;29.55;23.83;98276.81;8419098;28;20224;-76
2022/07/05 11:48:02;;;;;;;4.43;1.10;;;;;;;29.11;24.48;98285.50;8419117;28;20227;-76
2022/07/05 11:52:05;;;;;;;4.80;1.00;;;;;;;29.31;24.08;98277.88;8418811;28;20497;-78
2022/07/05 11:56:08;;;;;;;4.97;1.23;;;;;;;30.53;23.84;98262.34;8418684;28;20230;-78
2022/07/05 12:00:12;;;;;;;4.13;1.20;;;;;;;31.03;23.46;98265.16;8418431;28;20231;-79
2022/07/05 12:04:23;;;;;;;2.73;1.00;;;;;;;31.01;23.63;98269.84;8385255;28;20227;-79
2022/07/05 12:08:27;;;;;;;2.67;1.00;;;;;;;31.00;21.67;98260.19;8384786;28;20440;-78
2022/07/05 12:12:47;;;;;;;1.73;1.00;;;;;;;31.53;22.17;98266.00;8384702;28;20245;-77
2022/07/05 12:16:50;;;;;;;6.60;1.20;;;;;;;31.62;20.61;98258.63;8384586;28;20241;-81
2022/07/05 12:20:54;;;;;;;1.27;0.90;;;;;;;31.20;21.66;98254.19;8384794;28;20292;-79
2022/07/05 12:24:58;;;;;;;6.17;1.10;;;;;;;31.43;21.84;98262.78;8384849;28;20298;-79
2022/07/05 12:29:01;;;;;;;3.00;1.00;;;;;;;31.65;21.90;98262.78;8384433;28;20226;-80
2022/07/05 12:33:06;;;;;;;1.20;0.77;;;;;;;31.62;23.10;98253.28;8384318;28;20231;-79
2022/07/05 12:37:10;;;;;;;3.47;0.83;;;;;;;30.60;22.24;98260.59;8384333;28;20238;-81
2022/07/05 12:41:22;;;;;;;3.23;1.00;;;;;;;30.55;22.39;98252.31;8384115;28;20233;-78
2022/07/05 12:45:25;;;;;;;1.37;1.03;;;;;;;30.41;23.81;98250.53;8383127;28;20299;-76
2022/07/05 12:49:28;;;;;;;1.33;0.90;;;;;;;30.37;23.76;98241.22;8383657;28;20567;-77
2022/07/05 12:58:05;;;;;;;2.77;0.80;;;;;;;29.33;23.62;98244.69;8383538;28;20229;-77
2022/07/05 13:02:08;;;;;;;5.87;1.00;;;;;;;30.65;23.61;98238.63;8398930;28;20527;-78
2022/07/05 13:06:11;;;;;;;2.40;1.27;;;;;;;30.18;23.61;98234.59;8416340;28;20439;-78
2022/07/05 13:10:16;;;;;;;2.10;1.10;;;;;;;30.00;22.73;98227.78;8416042;28;20432;-76
2022/07/05 13:14:19;;;;;;;4.40;0.90;;;;;;;30.09;23.20;98228.53;8415913;28;20529;-77
2022/07/05 13:18:26;;;;;;;1.80;0.93;;;;;;;30.96;22.51;98238.34;8415498;28;20241;-76
2022/07/05 13:22:29;;;;;;;2.47;1.17;;;;;;;29.95;22.39;98235.56;8415627;28;20235;-76
2022/07/05 13:26:34;;;;;;;2.53;0.90;;;;;;;30.17;21.95;98232.94;8415203;28;20497;-76
2022/07/05 13:30:37;;;;;;;2.43;0.93;;;;;;;30.13;23.26;98237.81;8415297;28;20418;-76
2022/07/05 13:34:39;;;;;;;2.17;1.00;;;;;;;30.79;21.91;98227.06;8415423;28;20240;-76
2022/07/05 13:38:42;;;;;;;4.73;1.20;;;;;;;30.96;21.45;98224.16;8415160;28;20239;-76
2022/07/05 13:42:47;;;;;;;2.93;1.30;;;;;;;30.10;21.61;98224.00;8415244;28;20226;-77
2022/07/05 13:46:50;;;;;;;4.23;1.23;;;;;;;30.75;23.05;98223.13;8414633;28;20240;-76
2022/07/05 13:50:52;;;;;;;2.97;1.10;;;;;;;31.13;22.52;98224.69;8414846;28;20315;-76
2022/07/05 13:54:55;;;;;;;1.87;1.00;;;;;;;30.07;22.09;98222.56;8414977;28;20247;-76
2022/07/05 13:59:00;;;;;;;1.60;1.17;;;;;;;30.36;22.45;98216.34;8414764;28;20231;-76
2022/07/05 14:03:02;;;;;;;3.87;1.00;;;;;;;30.46;23.21;98213.34;8414491;28;20225;-76
2022/07/05 14:07:08;;;;;;;4.73;1.40;;;;;;;29.62;22.26;98214.56;8414495;28;20227;-76
2022/07/05 14:11:12;;;;;;;3.47;1.20;;;;;;;29.30;22.64;98218.41;8414391;28;20233;-76
2022/07/05 14:15:17;;;;;;;1.70;0.90;;;;;;;30.42;22.82;98222.78;8414389;28;20229;-76
2022/07/05 14:19:20;;;;;;;2.20;1.10;;;;;;;30.78;22.84;98214.72;8414137;28;20231;-76
2022/07/05 14:23:23;;;;;;;2.37;0.90;;;;;;;30.78;22.75;98219.22;8413715;28;20226;-75
2022/07/05 14:27:26;;;;;;;3.90;1.00;;;;;;;30.77;21.36;98218.41;8414092;28;20231;-76
2022/07/05 14:31:32;;;;;;;2.93;0.90;;;;;;;31.07;21.92;98215.63;8414121;28;20299;-76
2022/07/05 14:35:35;;;;;;;2.03;0.90;;;;;;;31.23;21.49;98208.34;8414092;28;20237;-76
2022/07/05 14:39:38;;;;;;;2.50;0.90;;;;;;;30.95;21.52;98201.13;8413800;28;20236;-76
2022/07/05 14:43:41;;;;;;;5.97;1.00;;;;;;;30.89;22.24;98196.50;8386481;28;20234;-76
2022/07/05 14:47:45;;;;;;;2.23;0.90;;;;;;;30.16;21.77;98196.59;8380385;28;20232;-76
2022/07/05 14:51:48;;;;;;;3.57;0.90;;;;;;;29.77;22.54;98197.72;8380352;28;20252;-76
2022/07/05 14:55:50;;;;;;;2.17;0.93;;;;;;;30.23;23.03;98184.09;8393844;28;20235;-76
2022/07/05 14:59:53;;;;;;;4.70;1.13;;;;;;;30.21;22.11;98178.97;8413561;28;20559;-75
2022/07/05 15:03:57;;;;;;;3.63;1.00;;;;;;;30.27;21.74;98190.72;8413655;28;20397;-77
2022/07/05 15:08:00;;;;;;;5.00;1.10;;;;;;;30.14;22.14;98188.75;8413452;28;20470;-76
2022/07/05 15:12:03;;;;;;;2.77;0.87;;;;;;;30.14;22.00;98180.75;8413312;28;20231;-76
2022/07/05 15:16:07;;;;;;;5.03;0.97;;;;;;;29.58;22.79;98183.91;8412127;28;20233;-76
2022/07/05 15:20:12;;;;;;;1.30;1.00;;;;;;;29.61;22.61;98174.72;8413227;28;20336;-76
2022/07/05 15:24:16;;;;;;;3.20;1.10;;;;;;;30.15;22.62;98176.22;8413355;28;20230;-76
2022/07/05 15:28:20;;;;;;;4.73;1.00;;;;;;;30.25;22.38;98165.22;8413189;28;20228;-76
2022/07/05 15:32:23;;;;;;;3.93;1.00;;;;;;;29.98;20.81;98167.59;8412909;28;20239;-77
2022/07/05 15:36:27;;;;;;;3.23;0.80;;;;;;;29.94;21.06;98169.00;8413096;28;20236;-76
2022/07/05 15:40:30;;;;;;;1.67;1.00;;;;;;;29.33;21.96;98171.84;8412507;28;20235;-76
2022/07/05 15:44:33;;;;;;;2.80;0.97;;;;;;;29.55;21.39;98173.63;8412894;28;20327;-76
2022/07/05 15:48:36;;;;;;;2.10;1.10;;;;;;;29.63;21.86;98164.69;8416529;28;20234;-76
2022/07/05 15:52:42;;;;;;;6.80;1.00;;;;;;;28.86;22.37;98165.75;8418947;28;20238;-76
2022/07/05 15:56:45;;;;;;;3.67;1.03;;;;;;;28.90;23.19;98172.41;8418640;28;20238;-76
2022/07/05 16:00:48;;;;;;;4.93;1.20;;;;;;;28.68;22.41;98162.59;8418358;28;20424;-76
2022/07/05 16:04:51;;;;;;;2.83;1.00;;;;;;;28.87;22.44;98164.75;8418316;28;20241;-76
2022/07/05 16:08:55;;;;;;;4.53;0.83;;;;;;;29.11;21.61;98168.19;8418184;28;20230;-76
2022/07/05 16:12:58;;;;;;;1.77;0.90;;;;;;;28.68;22.77;98165.25;8417776;28;20532;-75
2022/07/05 16:17:00;;;;;;;1.60;1.00;;;;;;;28.46;23.19;98157.91;8418271;28;20227;-76
2022/07/05 16:21:07;;;;;;;2.10;0.90;;;;;;;28.90;23.03;98159.09;8417887;28;20525;-76
2022/07/05 16:25:15;;;;;;;1.43;0.93;;;;;;;28.93;22.91;98150.69;8417714;28;20275;-76
2022/07/05 16:29:18;;;;;;;6.03;1.07;;;;;;;28.93;21.73;98149.88;8417556;28;20235;-76
2022/07/05 16:33:21;;;;;;;3.10;1.00;;;;;;;28.71;21.81;98148.91;8417473;28;20227;-76
2022/07/05 16:37:25;;;;;;;2.70;1.20;;;;;;;28.66;21.58;98147.59;8417060;28;20234;-75
2022/07/05 16:41:29;;;;;;;1.47;1.10;;;;;;;28.90;22.43;98151.09;8417101;28;20235;-75
2022/07/05 16:45:32;;;;;;;1.30;0.97;;;;;;;28.83;22.65;98150.16;8415995;28;20253;-76
2022/07/05 16:49:35;;;;;;;2.97;0.90;;;;;;;28.38;22.87;98149.13;8416500;28;20227;-76
2022/07/05 16:53:39;;;;;;;2.07;0.83;;;;;;;28.31;23.07;98150.84;8416587;28;20240;-77
2022/07/05 16:57:43;;;;;;;6.67;1.10;;;;;;;28.37;23.63;98153.63;8415999;28;20242;-76
2022/07/05 17:01:45;;;;;;;3.27;1.20;;;;;;;28.38;22.63;98152.59;8415962;28;20426;-77
2022/07/05 17:05:48;;;;;;;5.10;1.03;;;;;;;28.35;23.15;98150.31;8416363;28;20226;-76
2022/07/05 17:09:51;;;;;;;9.80;3.30;;;;;;;28.15;22.58;98149.94;8415754;28;20236;-76
2022/07/05 17:13:57;;;;;;;8.50;5.33;;;;;;;28.08;22.92;98152.47;8415852;28;20401;-76
2022/07/05 17:18:00;;;;;;;4.77;4.37;;;;;;;27.95;22.69;98154.88;8415736;28;20225;-76
2022/07/05 17:22:03;;;;;;;7.07;2.63;;;;;;;27.99;23.44;98152.72;8415748;28;20233;-76
2022/07/05 17:26:07;;;;;;;11.00;1.97;;;;;;;27.78;24.09;98159.41;8393211;28;20241;-80
2022/07/05 17:30:12;;;;;;;3.47;1.30;;;;;;;27.45;23.42;98170.16;8382387;28;20227;-78
2022/07/05 17:34:15;;;;;;;3.87;1.20;;;;;;;27.30;23.87;98170.06;8382533;28;20227;-78
2022/07/05 17:38:18;;;;;;;2.70;1.20;;;;;;;27.17;23.84;98169.72;8381952;28;20229;-80
2022/07/05 17:42:20;;;;;;;4.43;1.23;;;;;;;27.28;23.88;98171.19;8401256;28;20236;-79
2022/07/05 17:46:25;;;;;;;2.60;1.10;;;;;;;27.30;24.04;98166.53;8414028;28;20435;-83
2022/07/05 17:50:28;;;;;;;3.10;1.10;;;;;;;27.15;23.78;98169.06;8414182;28;20237;-79
2022/07/05 17:54:37;;;;;;;3.50;1.10;;;;;;;27.24;24.31;98175.16;8415192;28;20232;-78
2022/07/05 17:58:41;;;;;;;3.23;1.30;;;;;;;27.06;23.98;98172.72;8414218;28;20241;-76
2022/07/05 18:02:46;;;;;;;3.00;1.30;;;;;;;26.99;24.45;98190.31;8414027;28;20235;-78
2022/07/05 18:06:53;;;;;;;6.60;1.27;;;;;;;26.79;24.09;98181.84;8414144;28;20528;-86
2022/07/05 18:10:56;;;;;;;3.83;1.40;;;;;;;26.79;24.72;98190.66;8413436;28;20357;-79
2022/07/05 18:14:59;;;;;;;4.40;1.40;;;;;;;26.74;24.41;98185.00;8414151;28;20232;-79
2022/07/05 18:19:03;;;;;;;4.20;1.20;;;;;;;26.74;24.39;98184.19;8413732;28;20231;-79
2022/07/05 18:23:06;;;;;;;7.40;1.40;;;;;;;26.56;24.62;98193.13;8413646;28;20228;-79
2022/07/05 18:27:09;;;;;;;5.53;1.70;;;;;;;26.62;25.42;98187.16;8413899;28;20234;-79
2022/07/05 18:31:24;;;;;;;7.23;1.40;;;;;;;26.49;25.52;98187.63;8413328;28;20235;-79
2022/07/05 18:35:28;;;;;;;4.40;1.23;;;;;;;26.52;25.26;98195.25;8413744;28;20566;-79
2022/07/05 18:39:31;;;;;;;2.97;1.30;;;;;;;26.51;26.11;98195.41;8413635;28;20435;-76
2022/07/05 18:43:34;;;;;;;4.97;1.47;;;;;;;26.53;26.47;98194.25;8413429;28;20233;-76
2022/07/05 18:47:37;;;;;;;6.87;1.70;;;;;;;26.48;26.45;98203.69;8413620;28;20428;-75
2022/07/05 18:51:41;;;;;;;9.17;1.80;;;;;;;26.43;27.67;98206.84;8413197;28;20241;-78
2022/07/05 18:55:44;;;;;;;16.53;2.70;;;;;;;26.41;26.74;98216.81;8413516;28;20223;-79
2022/07/05 19:00:08;;;;;;;6.73;1.87;;;;;;;26.37;27.58;98215.47;8413046;28;20234;-78
2022/07/05 19:04:11;;;;;;;14.73;2.37;;;;;;;26.38;27.71;98221.63;8412941;28;20228;-78
2022/07/05 19:16:55;;;;;;;6.90;1.90;;;;;;;26.28;28.99;98219.09;8412971;28;20412;-79
2022/07/05 19:20:59;;;;;;;6.60;1.60;;;;;;;26.25;28.71;98222.06;8380700;28;20560;-79
2022/07/05 19:25:10;;;;;;;10.90;1.67;;;;;;;26.22;28.89;98225.06;8386147;28;20248;-79
2022/07/05 19:29:13;;;;;;;7.20;1.60;;;;;;;26.18;29.73;98226.34;8401486;28;20429;-79
2022/07/05 19:33:16;;;;;;;9.20;2.10;;;;;;;26.16;29.59;98231.84;8419123;28;20240;-79